sensor_id;sensor_type;location;lat;lon;timestamp;temperature;humidity
8402;DHT22;4238;48.404;9.498;2022-10-19T00:00:03;10.00;99.90
8402;DHT22;4238;48.404;9.498;2022-10-19T00:02:30;9.90;99.90
8402;DHT22;4238;48.404;9.498;2022-10-19T00:04:57;9.80;99.90
8402;DHT22;4238;48.404;9.498;2022-10-19T00:07:24;9.80;99.90
8402;DHT22;4238;48.404;9.498;2022-10-19T00:09:51;9.80;99.90
8402;DHT22;4238;48.404;9.498;2022-10-19T00:12:17;9.80;99.90
8402;DHT22;4238;48.404;9.498;2022-10-19T00:14:46;9.60;99.90
8402;DHT22;4238;48.404;9.498;2022-10-19T00:17:13;9.60;99.90
8402;DHT22;4238;48.404;9.498;2022-10-19T00:19:39;9.60;99.90
8402;DHT22;4238;48.404;9.498;2022-10-19T00:22:06;9.60;99.90
8402;DHT22;4238;48.404;9.498;2022-10-19T00:24:33;9.70;99.90
8402;DHT22;4238;48.404;9.498;2022-10-19T00:27:00;9.50;99.90
8402;DHT22;4238;48.404;9.498;2022-10-19T00:29:27;9.40;99.90
8402;DHT22;4238;48.404;9.498;2022-10-19T00:31:55;9.30;99.90
8402;DHT22;4238;48.404;9.498;2022-10-19T00:34:22;9.30;99.90
8402;DHT22;4238;48.404;9.498;2022-10-19T00:36:49;9.30;99.90
8402;DHT22;4238;48.404;9.498;2022-10-19T00:39:16;9.40;99.90
8402;DHT22;4238;48.404;9.498;2022-10-19T00:41:46;9.50;99.90
8402;DHT22;4238;48.404;9.498;2022-10-19T00:47:22;9.30;99.90
8402;DHT22;4238;48.404;9.498;2022-10-19T00:49:50;9.40;99.90
8402;DHT22;4238;48.404;9.498;2022-10-19T00:52:20;9.40;99.90
8402;DHT22;4238;48.404;9.498;2022-10-19T00:54:48;9.40;99.90
8402;DHT22;4238;48.404;9.498;2022-10-19T00:57:17;9.40;99.90
8402;DHT22;4238;48.404;9.498;2022-10-19T00:59:45;9.40;99.90
8402;DHT22;4238;48.404;9.498;2022-10-19T01:02:12;9.30;99.90
8402;DHT22;4238;48.404;9.498;2022-10-19T01:04:45;9.40;99.90
8402;DHT22;4238;48.404;9.498;2022-10-19T01:07:13;9.40;99.90
8402;DHT22;4238;48.404;9.498;2022-10-19T01:09:40;9.40;99.90
8402;DHT22;4238;48.404;9.498;2022-10-19T01:12:21;9.50;99.90
8402;DHT22;4238;48.404;9.498;2022-10-19T01:15:02;9.50;99.90
8402;DHT22;4238;48.404;9.498;2022-10-19T01:17:38;9.40;99.90
8402;DHT22;4238;48.404;9.498;2022-10-19T01:23:45;9.40;99.90
8402;DHT22;4238;48.404;9.498;2022-10-19T01:26:33;9.40;99.90
8402;DHT22;4238;48.404;9.498;2022-10-19T01:29:10;9.50;99.90
8402;DHT22;4238;48.404;9.498;2022-10-19T01:31:45;9.40;99.90
8402;DHT22;4238;48.404;9.498;2022-10-19T01:34:18;9.40;99.90
8402;DHT22;4238;48.404;9.498;2022-10-19T01:36:55;9.30;99.90
8402;DHT22;4238;48.404;9.498;2022-10-19T01:39:27;9.20;99.90
8402;DHT22;4238;48.404;9.498;2022-10-19T01:42:01;9.20;99.90
8402;DHT22;4238;48.404;9.498;2022-10-19T01:44:36;9.20;99.90
8402;DHT22;4238;48.404;9.498;2022-10-19T01:47:09;9.10;99.90
8402;DHT22;4238;48.404;9.498;2022-10-19T01:49:41;9.10;99.90
8402;DHT22;4238;48.404;9.498;2022-10-19T01:52:12;9.10;99.90
8402;DHT22;4238;48.404;9.498;2022-10-19T01:54:43;9.00;99.90
8402;DHT22;4238;48.404;9.498;2022-10-19T01:57:11;9.10;99.90
8402;DHT22;4238;48.404;9.498;2022-10-19T01:59:40;9.00;99.90
8402;DHT22;4238;48.404;9.498;2022-10-19T02:02:10;9.00;99.90
8402;DHT22;4238;48.404;9.498;2022-10-19T02:04:38;9.00;99.90
8402;DHT22;4238;48.404;9.498;2022-10-19T02:07:07;9.00;99.90
8402;DHT22;4238;48.404;9.498;2022-10-19T02:09:35;9.00;99.90
8402;DHT22;4238;48.404;9.498;2022-10-19T02:12:04;9.00;99.90
8402;DHT22;4238;48.404;9.498;2022-10-19T02:14:38;8.90;99.90
8402;DHT22;4238;48.404;9.498;2022-10-19T02:17:09;9.00;99.90
8402;DHT22;4238;48.404;9.498;2022-10-19T02:19:37;8.90;99.90
8402;DHT22;4238;48.404;9.498;2022-10-19T02:22:04;8.90;99.90
8402;DHT22;4238;48.404;9.498;2022-10-19T02:24:31;8.80;99.90
8402;DHT22;4238;48.404;9.498;2022-10-19T02:26:59;8.80;99.90
8402;DHT22;4238;48.404;9.498;2022-10-19T02:29:26;8.80;99.90
8402;DHT22;4238;48.404;9.498;2022-10-19T02:31:53;8.80;99.90
8402;DHT22;4238;48.404;9.498;2022-10-19T02:34:22;8.80;99.90
8402;DHT22;4238;48.404;9.498;2022-10-19T02:36:49;8.70;99.90
8402;DHT22;4238;48.404;9.498;2022-10-19T02:39:16;8.60;99.90
8402;DHT22;4238;48.404;9.498;2022-10-19T02:41:47;8.70;99.90
8402;DHT22;4238;48.404;9.498;2022-10-19T02:44:19;8.70;99.90
8402;DHT22;4238;48.404;9.498;2022-10-19T02:46:51;8.70;99.90
8402;DHT22;4238;48.404;9.498;2022-10-19T02:49:22;8.70;99.90
8402;DHT22;4238;48.404;9.498;2022-10-19T02:51:59;8.80;99.90
8402;DHT22;4238;48.404;9.498;2022-10-19T02:54:27;8.80;99.90
8402;DHT22;4238;48.404;9.498;2022-10-19T02:56:54;8.80;99.90
8402;DHT22;4238;48.404;9.498;2022-10-19T02:59:21;8.80;99.90
8402;DHT22;4238;48.404;9.498;2022-10-19T03:01:49;8.90;99.90
8402;DHT22;4238;48.404;9.498;2022-10-19T03:04:16;8.90;99.90
8402;DHT22;4238;48.404;9.498;2022-10-19T03:06:44;8.90;99.90
8402;DHT22;4238;48.404;9.498;2022-10-19T03:09:11;8.80;99.90
8402;DHT22;4238;48.404;9.498;2022-10-19T03:11:38;8.80;99.90
8402;DHT22;4238;48.404;9.498;2022-10-19T03:14:05;8.80;99.90
8402;DHT22;4238;48.404;9.498;2022-10-19T03:16:32;8.70;99.90
8402;DHT22;4238;48.404;9.498;2022-10-19T03:18:58;8.70;99.90
8402;DHT22;4238;48.404;9.498;2022-10-19T03:21:25;8.70;99.90
8402;DHT22;4238;48.404;9.498;2022-10-19T03:23:54;8.60;99.90
8402;DHT22;4238;48.404;9.498;2022-10-19T03:26:21;8.70;99.90
8402;DHT22;4238;48.404;9.498;2022-10-19T03:28:47;8.60;99.90
8402;DHT22;4238;48.404;9.498;2022-10-19T03:31:14;8.50;99.90
8402;DHT22;4238;48.404;9.498;2022-10-19T03:33:41;8.50;99.90
8402;DHT22;4238;48.404;9.498;2022-10-19T03:36:15;8.50;99.90
8402;DHT22;4238;48.404;9.498;2022-10-19T03:38:42;8.50;99.90
8402;DHT22;4238;48.404;9.498;2022-10-19T03:41:11;8.50;99.90
8402;DHT22;4238;48.404;9.498;2022-10-19T03:43:38;8.50;99.90
8402;DHT22;4238;48.404;9.498;2022-10-19T03:46:05;8.40;99.90
8402;DHT22;4238;48.404;9.498;2022-10-19T03:48:32;8.40;99.90
8402;DHT22;4238;48.404;9.498;2022-10-19T03:51:00;8.40;99.90
8402;DHT22;4238;48.404;9.498;2022-10-19T03:53:27;8.40;99.90
8402;DHT22;4238;48.404;9.498;2022-10-19T03:56:00;8.50;99.90
8402;DHT22;4238;48.404;9.498;2022-10-19T03:58:32;8.50;99.90
8402;DHT22;4238;48.404;9.498;2022-10-19T04:00:59;8.60;99.90
8402;DHT22;4238;48.404;9.498;2022-10-19T04:03:27;8.70;99.90
8402;DHT22;4238;48.404;9.498;2022-10-19T04:06:00;8.70;99.90
8402;DHT22;4238;48.404;9.498;2022-10-19T04:08:28;8.60;99.90
8402;DHT22;4238;48.404;9.498;2022-10-19T04:10:58;8.50;99.90
8402;DHT22;4238;48.404;9.498;2022-10-19T04:13:26;8.30;99.90
8402;DHT22;4238;48.404;9.498;2022-10-19T04:15:54;8.20;99.90
8402;DHT22;4238;48.404;9.498;2022-10-19T04:18:21;8.30;99.90
8402;DHT22;4238;48.404;9.498;2022-10-19T04:20:49;8.20;99.90
8402;DHT22;4238;48.404;9.498;2022-10-19T04:23:20;8.10;99.90
8402;DHT22;4238;48.404;9.498;2022-10-19T04:25:47;8.10;99.90
8402;DHT22;4238;48.404;9.498;2022-10-19T04:28:14;8.10;99.90
8402;DHT22;4238;48.404;9.498;2022-10-19T04:30:41;8.00;99.90
8402;DHT22;4238;48.404;9.498;2022-10-19T04:33:09;8.20;99.90
8402;DHT22;4238;48.404;9.498;2022-10-19T04:35:36;8.30;99.90
8402;DHT22;4238;48.404;9.498;2022-10-19T04:38:03;8.40;99.90
8402;DHT22;4238;48.404;9.498;2022-10-19T04:40:30;8.50;99.90
8402;DHT22;4238;48.404;9.498;2022-10-19T04:42:57;8.70;99.90
8402;DHT22;4238;48.404;9.498;2022-10-19T04:45:23;8.90;99.90
8402;DHT22;4238;48.404;9.498;2022-10-19T04:47:50;8.90;99.90
8402;DHT22;4238;48.404;9.498;2022-10-19T04:50:20;9.00;99.90
8402;DHT22;4238;48.404;9.498;2022-10-19T04:52:47;9.00;99.90
8402;DHT22;4238;48.404;9.498;2022-10-19T04:55:14;9.10;99.90
8402;DHT22;4238;48.404;9.498;2022-10-19T04:57:41;9.10;99.90
8402;DHT22;4238;48.404;9.498;2022-10-19T05:00:09;9.30;99.90
8402;DHT22;4238;48.404;9.498;2022-10-19T05:02:36;9.50;99.90
8402;DHT22;4238;48.404;9.498;2022-10-19T05:05:03;9.60;99.90
8402;DHT22;4238;48.404;9.498;2022-10-19T05:07:31;9.70;99.90
8402;DHT22;4238;48.404;9.498;2022-10-19T05:09:58;9.90;99.90
8402;DHT22;4238;48.404;9.498;2022-10-19T05:12:25;10.00;99.90
8402;DHT22;4238;48.404;9.498;2022-10-19T05:14:52;10.20;99.90
8402;DHT22;4238;48.404;9.498;2022-10-19T05:17:19;10.40;99.90
8402;DHT22;4238;48.404;9.498;2022-10-19T05:19:46;10.50;99.90
8402;DHT22;4238;48.404;9.498;2022-10-19T05:22:13;10.60;99.90
8402;DHT22;4238;48.404;9.498;2022-10-19T05:24:41;10.80;99.90
8402;DHT22;4238;48.404;9.498;2022-10-19T05:27:08;10.90;99.90
8402;DHT22;4238;48.404;9.498;2022-10-19T05:29:35;10.90;99.90
8402;DHT22;4238;48.404;9.498;2022-10-19T05:32:02;10.90;99.90
8402;DHT22;4238;48.404;9.498;2022-10-19T05:34:29;11.00;99.90
8402;DHT22;4238;48.404;9.498;2022-10-19T05:36:55;11.00;99.90
8402;DHT22;4238;48.404;9.498;2022-10-19T05:39:23;11.00;99.90
8402;DHT22;4238;48.404;9.498;2022-10-19T05:41:51;10.90;99.90
8402;DHT22;4238;48.404;9.498;2022-10-19T05:44:19;11.00;99.90
8402;DHT22;4238;48.404;9.498;2022-10-19T05:46:47;11.00;99.90
8402;DHT22;4238;48.404;9.498;2022-10-19T05:49:16;11.00;99.90
8402;DHT22;4238;48.404;9.498;2022-10-19T05:51:43;11.10;99.90
8402;DHT22;4238;48.404;9.498;2022-10-19T05:54:11;11.10;99.90
8402;DHT22;4238;48.404;9.498;2022-10-19T05:56:39;11.10;99.90
8402;DHT22;4238;48.404;9.498;2022-10-19T05:59:09;11.10;99.90
8402;DHT22;4238;48.404;9.498;2022-10-19T06:01:36;11.00;99.90
8402;DHT22;4238;48.404;9.498;2022-10-19T06:04:03;11.00;99.90
8402;DHT22;4238;48.404;9.498;2022-10-19T06:06:31;11.00;99.90
8402;DHT22;4238;48.404;9.498;2022-10-19T06:08:59;11.10;99.90
8402;DHT22;4238;48.404;9.498;2022-10-19T06:11:27;11.10;99.90
8402;DHT22;4238;48.404;9.498;2022-10-19T06:13:55;11.20;99.90
8402;DHT22;4238;48.404;9.498;2022-10-19T06:16:25;11.30;99.90
8402;DHT22;4238;48.404;9.498;2022-10-19T06:18:53;11.50;99.90
8402;DHT22;4238;48.404;9.498;2022-10-19T06:21:21;11.60;99.90
8402;DHT22;4238;48.404;9.498;2022-10-19T06:23:49;11.70;99.90
8402;DHT22;4238;48.404;9.498;2022-10-19T06:26:17;11.70;99.90
8402;DHT22;4238;48.404;9.498;2022-10-19T06:28:45;11.80;99.90
8402;DHT22;4238;48.404;9.498;2022-10-19T06:31:12;11.80;99.90
8402;DHT22;4238;48.404;9.498;2022-10-19T06:33:42;11.90;99.90
8402;DHT22;4238;48.404;9.498;2022-10-19T06:36:11;11.90;99.90
8402;DHT22;4238;48.404;9.498;2022-10-19T06:38:38;12.00;99.90
8402;DHT22;4238;48.404;9.498;2022-10-19T06:41:06;12.00;99.90
8402;DHT22;4238;48.404;9.498;2022-10-19T06:43:33;12.00;99.90
8402;DHT22;4238;48.404;9.498;2022-10-19T06:46:03;12.10;99.90
8402;DHT22;4238;48.404;9.498;2022-10-19T06:48:30;12.20;99.90
8402;DHT22;4238;48.404;9.498;2022-10-19T06:51:00;12.20;99.90
8402;DHT22;4238;48.404;9.498;2022-10-19T06:53:27;12.20;99.90
8402;DHT22;4238;48.404;9.498;2022-10-19T06:55:56;12.20;99.90
8402;DHT22;4238;48.404;9.498;2022-10-19T06:58:23;12.20;99.90
8402;DHT22;4238;48.404;9.498;2022-10-19T07:00:54;12.20;99.90
8402;DHT22;4238;48.404;9.498;2022-10-19T07:03:21;12.20;99.90
8402;DHT22;4238;48.404;9.498;2022-10-19T07:05:52;12.20;99.90
8402;DHT22;4238;48.404;9.498;2022-10-19T07:08:21;12.20;99.90
8402;DHT22;4238;48.404;9.498;2022-10-19T07:10:51;12.20;99.90
8402;DHT22;4238;48.404;9.498;2022-10-19T07:13:18;12.20;99.90
8402;DHT22;4238;48.404;9.498;2022-10-19T07:15:46;12.10;99.90
8402;DHT22;4238;48.404;9.498;2022-10-19T07:18:13;12.20;99.90
8402;DHT22;4238;48.404;9.498;2022-10-19T07:20:40;12.20;99.90
8402;DHT22;4238;48.404;9.498;2022-10-19T07:23:07;12.10;99.90
8402;DHT22;4238;48.404;9.498;2022-10-19T07:25:36;12.20;99.90
8402;DHT22;4238;48.404;9.498;2022-10-19T07:28:03;12.10;99.90
8402;DHT22;4238;48.404;9.498;2022-10-19T07:30:30;12.10;99.90
8402;DHT22;4238;48.404;9.498;2022-10-19T07:32:57;12.10;99.90
8402;DHT22;4238;48.404;9.498;2022-10-19T07:35:24;12.20;99.90
8402;DHT22;4238;48.404;9.498;2022-10-19T07:37:51;12.30;99.90
8402;DHT22;4238;48.404;9.498;2022-10-19T07:40:18;12.30;99.90
8402;DHT22;4238;48.404;9.498;2022-10-19T07:42:46;12.40;99.90
8402;DHT22;4238;48.404;9.498;2022-10-19T07:45:13;12.40;99.90
8402;DHT22;4238;48.404;9.498;2022-10-19T07:47:40;12.40;99.90
8402;DHT22;4238;48.404;9.498;2022-10-19T07:50:07;12.50;99.90
8402;DHT22;4238;48.404;9.498;2022-10-19T07:52:34;12.40;99.90
8402;DHT22;4238;48.404;9.498;2022-10-19T07:55:01;12.50;99.90
8402;DHT22;4238;48.404;9.498;2022-10-19T07:57:28;12.60;99.90
8402;DHT22;4238;48.404;9.498;2022-10-19T07:59:56;12.70;99.90
8402;DHT22;4238;48.404;9.498;2022-10-19T08:02:23;12.60;99.90
8402;DHT22;4238;48.404;9.498;2022-10-19T08:04:50;12.70;99.90
8402;DHT22;4238;48.404;9.498;2022-10-19T08:07:17;12.70;99.90
8402;DHT22;4238;48.404;9.498;2022-10-19T08:09:44;12.80;99.90
8402;DHT22;4238;48.404;9.498;2022-10-19T08:12:11;12.90;99.90
8402;DHT22;4238;48.404;9.498;2022-10-19T08:14:38;13.00;99.90
8402;DHT22;4238;48.404;9.498;2022-10-19T08:17:09;13.00;99.90
8402;DHT22;4238;48.404;9.498;2022-10-19T08:19:36;13.00;99.90
8402;DHT22;4238;48.404;9.498;2022-10-19T08:22:05;13.00;99.90
8402;DHT22;4238;48.404;9.498;2022-10-19T08:24:32;13.00;99.90
8402;DHT22;4238;48.404;9.498;2022-10-19T08:26:59;13.00;99.90
8402;DHT22;4238;48.404;9.498;2022-10-19T08:29:27;13.00;99.90
8402;DHT22;4238;48.404;9.498;2022-10-19T08:31:54;13.10;99.90
8402;DHT22;4238;48.404;9.498;2022-10-19T08:34:22;13.10;99.90
8402;DHT22;4238;48.404;9.498;2022-10-19T08:36:49;13.00;99.90
8402;DHT22;4238;48.404;9.498;2022-10-19T08:39:16;13.00;99.90
8402;DHT22;4238;48.404;9.498;2022-10-19T08:41:53;13.10;99.90
8402;DHT22;4238;48.404;9.498;2022-10-19T08:44:54;13.20;99.90
8402;DHT22;4238;48.404;9.498;2022-10-19T08:47:33;13.30;99.90
8402;DHT22;4238;48.404;9.498;2022-10-19T08:50:15;13.30;99.90
8402;DHT22;4238;48.404;9.498;2022-10-19T08:52:45;13.30;99.90
8402;DHT22;4238;48.404;9.498;2022-10-19T08:55:17;13.30;99.90
8402;DHT22;4238;48.404;9.498;2022-10-19T08:57:52;13.40;99.90
8402;DHT22;4238;48.404;9.498;2022-10-19T09:00:31;13.40;99.90
8402;DHT22;4238;48.404;9.498;2022-10-19T09:03:10;13.40;99.90
8402;DHT22;4238;48.404;9.498;2022-10-19T09:05:45;13.40;99.90
8402;DHT22;4238;48.404;9.498;2022-10-19T09:08:13;13.40;99.90
8402;DHT22;4238;48.404;9.498;2022-10-19T09:10:41;13.30;99.90
8402;DHT22;4238;48.404;9.498;2022-10-19T09:13:15;13.40;99.90
8402;DHT22;4238;48.404;9.498;2022-10-19T09:15:45;13.40;99.90
8402;DHT22;4238;48.404;9.498;2022-10-19T09:18:18;13.40;99.90
8402;DHT22;4238;48.404;9.498;2022-10-19T09:20:49;13.30;99.90
8402;DHT22;4238;48.404;9.498;2022-10-19T09:23:21;13.40;99.90
8402;DHT22;4238;48.404;9.498;2022-10-19T09:25:51;13.40;99.90
8402;DHT22;4238;48.404;9.498;2022-10-19T09:28:30;13.40;99.90
8402;DHT22;4238;48.404;9.498;2022-10-19T09:30:59;13.30;99.90
8402;DHT22;4238;48.404;9.498;2022-10-19T09:33:29;13.30;99.90
8402;DHT22;4238;48.404;9.498;2022-10-19T09:35:59;13.30;99.90
8402;DHT22;4238;48.404;9.498;2022-10-19T09:38:28;13.30;99.90
8402;DHT22;4238;48.404;9.498;2022-10-19T09:40:56;13.40;99.90
8402;DHT22;4238;48.404;9.498;2022-10-19T09:43:24;13.60;99.90
8402;DHT22;4238;48.404;9.498;2022-10-19T09:45:54;13.60;99.90
8402;DHT22;4238;48.404;9.498;2022-10-19T09:48:27;13.70;99.90
8402;DHT22;4238;48.404;9.498;2022-10-19T09:50:58;13.70;99.90
8402;DHT22;4238;48.404;9.498;2022-10-19T09:53:27;13.70;99.90
8402;DHT22;4238;48.404;9.498;2022-10-19T09:55:59;13.70;99.90
8402;DHT22;4238;48.404;9.498;2022-10-19T09:58:28;13.70;99.90
8402;DHT22;4238;48.404;9.498;2022-10-19T10:00:55;13.70;99.90
8402;DHT22;4238;48.404;9.498;2022-10-19T10:03:28;13.70;99.90
8402;DHT22;4238;48.404;9.498;2022-10-19T10:06:01;13.80;99.90
8402;DHT22;4238;48.404;9.498;2022-10-19T10:08:30;13.80;99.90
8402;DHT22;4238;48.404;9.498;2022-10-19T10:11:03;13.90;99.90
8402;DHT22;4238;48.404;9.498;2022-10-19T10:13:36;13.80;99.90
8402;DHT22;4238;48.404;9.498;2022-10-19T10:16:06;13.70;99.90
8402;DHT22;4238;48.404;9.498;2022-10-19T10:18:37;13.60;99.90
8402;DHT22;4238;48.404;9.498;2022-10-19T10:21:13;13.60;99.90
8402;DHT22;4238;48.404;9.498;2022-10-19T10:23:58;13.70;99.90
8402;DHT22;4238;48.404;9.498;2022-10-19T10:26:25;13.80;99.90
8402;DHT22;4238;48.404;9.498;2022-10-19T10:28:53;13.80;99.90
8402;DHT22;4238;48.404;9.498;2022-10-19T10:31:23;13.80;99.90
8402;DHT22;4238;48.404;9.498;2022-10-19T10:33:54;13.90;99.90
8402;DHT22;4238;48.404;9.498;2022-10-19T10:36:24;13.80;99.90
8402;DHT22;4238;48.404;9.498;2022-10-19T10:38:57;13.60;99.90
8402;DHT22;4238;48.404;9.498;2022-10-19T10:41:28;13.80;99.90
8402;DHT22;4238;48.404;9.498;2022-10-19T10:43:59;13.70;99.90
8402;DHT22;4238;48.404;9.498;2022-10-19T10:46:32;13.60;99.90
8402;DHT22;4238;48.404;9.498;2022-10-19T10:49:02;13.50;99.90
8402;DHT22;4238;48.404;9.498;2022-10-19T10:51:39;13.60;99.90
8402;DHT22;4238;48.404;9.498;2022-10-19T10:54:17;13.60;99.90
8402;DHT22;4238;48.404;9.498;2022-10-19T10:59:41;13.60;99.90
8402;DHT22;4238;48.404;9.498;2022-10-19T11:02:17;13.60;99.90
8402;DHT22;4238;48.404;9.498;2022-10-19T11:04:51;13.50;99.90
8402;DHT22;4238;48.404;9.498;2022-10-19T11:07:23;13.50;99.90
8402;DHT22;4238;48.404;9.498;2022-10-19T11:09:51;13.50;99.90
8402;DHT22;4238;48.404;9.498;2022-10-19T11:12:31;13.50;99.90
8402;DHT22;4238;48.404;9.498;2022-10-19T11:15:03;13.30;99.90
8402;DHT22;4238;48.404;9.498;2022-10-19T11:17:35;13.40;99.90
8402;DHT22;4238;48.404;9.498;2022-10-19T11:20:05;13.50;99.90
8402;DHT22;4238;48.404;9.498;2022-10-19T11:22:38;13.50;99.90
8402;DHT22;4238;48.404;9.498;2022-10-19T11:25:25;13.50;99.90
8402;DHT22;4238;48.404;9.498;2022-10-19T11:28:08;13.50;99.90
8402;DHT22;4238;48.404;9.498;2022-10-19T11:30:45;13.60;99.90
8402;DHT22;4238;48.404;9.498;2022-10-19T11:33:22;13.40;99.90
8402;DHT22;4238;48.404;9.498;2022-10-19T11:35:57;13.40;99.90
8402;DHT22;4238;48.404;9.498;2022-10-19T11:38:35;13.40;99.90
8402;DHT22;4238;48.404;9.498;2022-10-19T11:41:13;13.40;99.90
8402;DHT22;4238;48.404;9.498;2022-10-19T11:43:50;13.30;99.90
8402;DHT22;4238;48.404;9.498;2022-10-19T11:46:27;13.30;99.90
8402;DHT22;4238;48.404;9.498;2022-10-19T11:49:12;13.40;99.90
8402;DHT22;4238;48.404;9.498;2022-10-19T11:51:46;13.30;99.90
8402;DHT22;4238;48.404;9.498;2022-10-19T11:54:29;13.20;99.90
8402;DHT22;4238;48.404;9.498;2022-10-19T11:57:02;13.10;99.90
8402;DHT22;4238;48.404;9.498;2022-10-19T11:59:39;13.20;99.90
8402;DHT22;4238;48.404;9.498;2022-10-19T12:02:24;13.10;99.90
8402;DHT22;4238;48.404;9.498;2022-10-19T12:04:58;13.20;99.90
8402;DHT22;4238;48.404;9.498;2022-10-19T12:07:47;13.20;99.90
8402;DHT22;4238;48.404;9.498;2022-10-19T12:10:30;13.30;99.90
8402;DHT22;4238;48.404;9.498;2022-10-19T12:13:01;13.30;99.90
8402;DHT22;4238;48.404;9.498;2022-10-19T12:15:32;13.40;99.90
8402;DHT22;4238;48.404;9.498;2022-10-19T12:18:05;13.40;99.90
8402;DHT22;4238;48.404;9.498;2022-10-19T12:20:37;13.40;99.90
8402;DHT22;4238;48.404;9.498;2022-10-19T12:23:17;13.40;99.90
8402;DHT22;4238;48.404;9.498;2022-10-19T12:25:48;13.40;99.90
8402;DHT22;4238;48.404;9.498;2022-10-19T12:28:20;13.40;99.90
8402;DHT22;4238;48.404;9.498;2022-10-19T12:30:48;13.30;99.90
8402;DHT22;4238;48.404;9.498;2022-10-19T12:33:20;13.40;99.90
8402;DHT22;4238;48.404;9.498;2022-10-19T12:35:57;13.40;99.90
8402;DHT22;4238;48.404;9.498;2022-10-19T12:38:34;13.50;99.90
8402;DHT22;4238;48.404;9.498;2022-10-19T12:41:09;13.50;99.90
8402;DHT22;4238;48.404;9.498;2022-10-19T12:43:43;13.60;99.90
8402;DHT22;4238;48.404;9.498;2022-10-19T12:46:19;13.60;99.90
8402;DHT22;4238;48.404;9.498;2022-10-19T12:51:53;13.60;99.90
8402;DHT22;4238;48.404;9.498;2022-10-19T12:54:23;13.70;99.90
8402;DHT22;4238;48.404;9.498;2022-10-19T12:56:53;13.70;99.90
8402;DHT22;4238;48.404;9.498;2022-10-19T12:59:23;13.60;99.90
8402;DHT22;4238;48.404;9.498;2022-10-19T13:01:51;13.70;99.90
8402;DHT22;4238;48.404;9.498;2022-10-19T13:04:21;13.70;99.90
8402;DHT22;4238;48.404;9.498;2022-10-19T13:06:50;13.60;99.90
8402;DHT22;4238;48.404;9.498;2022-10-19T13:09:28;13.60;99.90
8402;DHT22;4238;48.404;9.498;2022-10-19T13:12:39;13.60;99.90
8402;DHT22;4238;48.404;9.498;2022-10-19T13:21:49;13.50;99.90
8402;DHT22;4238;48.404;9.498;2022-10-19T13:24:35;13.50;99.90
8402;DHT22;4238;48.404;9.498;2022-10-19T13:29:58;13.60;99.90
8402;DHT22;4238;48.404;9.498;2022-10-19T13:32:45;13.60;99.90
8402;DHT22;4238;48.404;9.498;2022-10-19T13:35:31;13.60;99.90
8402;DHT22;4238;48.404;9.498;2022-10-19T13:38:22;13.60;99.90
8402;DHT22;4238;48.404;9.498;2022-10-19T13:41:06;13.50;99.90
8402;DHT22;4238;48.404;9.498;2022-10-19T13:43:39;13.60;99.90
8402;DHT22;4238;48.404;9.498;2022-10-19T13:46:19;13.60;99.90
8402;DHT22;4238;48.404;9.498;2022-10-19T13:49:14;13.70;99.90
8402;DHT22;4238;48.404;9.498;2022-10-19T13:51:54;13.80;99.90
8402;DHT22;4238;48.404;9.498;2022-10-19T13:54:36;13.70;99.90
8402;DHT22;4238;48.404;9.498;2022-10-19T13:57:18;13.70;99.90
8402;DHT22;4238;48.404;9.498;2022-10-19T14:00:03;13.70;99.90
8402;DHT22;4238;48.404;9.498;2022-10-19T14:02:51;13.70;99.90
8402;DHT22;4238;48.404;9.498;2022-10-19T14:05:51;13.70;99.90
8402;DHT22;4238;48.404;9.498;2022-10-19T14:08:48;13.70;99.90
8402;DHT22;4238;48.404;9.498;2022-10-19T14:11:24;13.60;99.90
8402;DHT22;4238;48.404;9.498;2022-10-19T14:14:10;13.70;99.90
8402;DHT22;4238;48.404;9.498;2022-10-19T14:16:45;13.50;99.90
8402;DHT22;4238;48.404;9.498;2022-10-19T14:19:21;13.50;99.90
8402;DHT22;4238;48.404;9.498;2022-10-19T14:21:52;13.50;99.90
8402;DHT22;4238;48.404;9.498;2022-10-19T14:24:25;13.40;99.90
8402;DHT22;4238;48.404;9.498;2022-10-19T14:26:53;13.50;99.90
8402;DHT22;4238;48.404;9.498;2022-10-19T14:29:20;13.50;99.90
8402;DHT22;4238;48.404;9.498;2022-10-19T14:31:47;13.50;99.90
8402;DHT22;4238;48.404;9.498;2022-10-19T14:34:16;13.50;99.90
8402;DHT22;4238;48.404;9.498;2022-10-19T14:36:44;13.50;99.90
8402;DHT22;4238;48.404;9.498;2022-10-19T14:39:28;13.50;99.90
8402;DHT22;4238;48.404;9.498;2022-10-19T14:41:56;13.50;99.90
8402;DHT22;4238;48.404;9.498;2022-10-19T14:44:38;13.50;99.90
8402;DHT22;4238;48.404;9.498;2022-10-19T14:47:20;13.50;99.90
8402;DHT22;4238;48.404;9.498;2022-10-19T14:49:49;13.50;99.90
8402;DHT22;4238;48.404;9.498;2022-10-19T14:52:19;13.50;99.90
8402;DHT22;4238;48.404;9.498;2022-10-19T14:54:51;13.40;99.90
8402;DHT22;4238;48.404;9.498;2022-10-19T14:57:22;13.40;99.90
8402;DHT22;4238;48.404;9.498;2022-10-19T14:59:53;13.40;99.90
8402;DHT22;4238;48.404;9.498;2022-10-19T15:02:23;13.40;99.90
8402;DHT22;4238;48.404;9.498;2022-10-19T15:04:54;13.50;99.90
8402;DHT22;4238;48.404;9.498;2022-10-19T15:07:25;13.40;99.90
8402;DHT22;4238;48.404;9.498;2022-10-19T15:09:57;13.40;99.90
8402;DHT22;4238;48.404;9.498;2022-10-19T15:12:28;13.30;99.90
8402;DHT22;4238;48.404;9.498;2022-10-19T15:14:56;13.40;99.90
8402;DHT22;4238;48.404;9.498;2022-10-19T15:17:26;13.40;99.90
8402;DHT22;4238;48.404;9.498;2022-10-19T15:19:55;13.50;99.90
8402;DHT22;4238;48.404;9.498;2022-10-19T15:22:37;13.40;99.90
8402;DHT22;4238;48.404;9.498;2022-10-19T15:25:26;13.30;99.90
8402;DHT22;4238;48.404;9.498;2022-10-19T15:27:54;13.30;99.90
8402;DHT22;4238;48.404;9.498;2022-10-19T15:30:26;13.40;99.90
8402;DHT22;4238;48.404;9.498;2022-10-19T15:33:08;13.40;99.90
8402;DHT22;4238;48.404;9.498;2022-10-19T15:35:38;13.40;99.90
8402;DHT22;4238;48.404;9.498;2022-10-19T15:38:07;13.40;99.90
8402;DHT22;4238;48.404;9.498;2022-10-19T15:40:42;13.40;99.90
8402;DHT22;4238;48.404;9.498;2022-10-19T15:43:38;13.30;99.90
8402;DHT22;4238;48.404;9.498;2022-10-19T15:46:21;13.30;99.90
8402;DHT22;4238;48.404;9.498;2022-10-19T15:48:48;13.30;99.90
8402;DHT22;4238;48.404;9.498;2022-10-19T15:51:33;13.30;99.90
8402;DHT22;4238;48.404;9.498;2022-10-19T15:54:02;13.30;99.90
8402;DHT22;4238;48.404;9.498;2022-10-19T15:56:31;13.30;99.90
8402;DHT22;4238;48.404;9.498;2022-10-19T15:59:00;13.30;99.90
8402;DHT22;4238;48.404;9.498;2022-10-19T16:01:29;13.40;99.90
8402;DHT22;4238;48.404;9.498;2022-10-19T16:03:57;13.30;99.90
8402;DHT22;4238;48.404;9.498;2022-10-19T16:06:26;13.40;99.90
8402;DHT22;4238;48.404;9.498;2022-10-19T16:08:55;13.40;99.90
8402;DHT22;4238;48.404;9.498;2022-10-19T16:11:23;13.40;99.90
8402;DHT22;4238;48.404;9.498;2022-10-19T16:13:50;13.40;99.90
8402;DHT22;4238;48.404;9.498;2022-10-19T16:16:21;13.40;99.90
8402;DHT22;4238;48.404;9.498;2022-10-19T16:18:48;13.40;99.90
8402;DHT22;4238;48.404;9.498;2022-10-19T16:21:15;13.30;99.90
8402;DHT22;4238;48.404;9.498;2022-10-19T16:23:42;13.40;99.90
8402;DHT22;4238;48.404;9.498;2022-10-19T16:26:13;13.30;99.90
8402;DHT22;4238;48.404;9.498;2022-10-19T16:28:41;13.30;99.90
8402;DHT22;4238;48.404;9.498;2022-10-19T16:31:08;13.20;99.90
8402;DHT22;4238;48.404;9.498;2022-10-19T16:33:35;13.20;99.90
8402;DHT22;4238;48.404;9.498;2022-10-19T16:36:06;13.20;99.90
8402;DHT22;4238;48.404;9.498;2022-10-19T16:38:34;13.10;99.90
8402;DHT22;4238;48.404;9.498;2022-10-19T16:41:02;13.10;99.90
8402;DHT22;4238;48.404;9.498;2022-10-19T16:43:30;13.10;99.90
8402;DHT22;4238;48.404;9.498;2022-10-19T16:45:57;13.10;99.90
8402;DHT22;4238;48.404;9.498;2022-10-19T16:48:24;13.10;99.90
8402;DHT22;4238;48.404;9.498;2022-10-19T16:51:24;13.00;99.90
8402;DHT22;4238;48.404;9.498;2022-10-19T16:53:54;13.10;99.90